Time;durP1;ratioP1;P1;durP2;ratioP2;P2;SDS_P1;SDS_P2;PMS_P1;PMS_P2;Temp;Humidity;BMP_temperature;BMP_pressure;BME280_temperature;BME280_humidity;BME280_pressure;Samples;Min_cycle;Max_cycle;Signal;HPM_P1;HPM_P2
2023/05/19 00:01:31;;;;;;;8.70;5.80;;;;;;;7.85;99.35;98768.71;107006;1275;25658;-80
2023/05/19 00:04:04;;;;;;;7.90;6.40;;;;;;;7.86;99.25;98765.98;106826;1275;22625;-79
2023/05/19 00:06:32;;;;;;;11.50;6.30;;;;;;;7.86;99.25;98766.40;107060;1275;22525;-79
2023/05/19 00:09:03;;;;;;;9.40;6.10;;;;;;;7.86;99.33;98769.31;106888;1275;22534;-76
2023/05/19 00:11:32;;;;;;;8.70;6.40;;;;;;;7.86;99.62;98765.98;106931;1275;22676;-77
2023/05/19 00:14:01;;;;;;;8.70;6.70;;;;;;;7.82;99.68;98759.84;106788;1275;25386;-76
2023/05/19 00:16:30;;;;;;;9.00;6.20;;;;;;;7.78;99.59;98751.65;106830;1275;24217;-76
2023/05/19 00:19:00;;;;;;;9.00;6.50;;;;;;;7.75;99.91;98749.48;106798;1275;24291;-77
2023/05/19 00:21:30;;;;;;;9.40;6.40;;;;;;;7.72;99.52;98750.49;106884;1275;22634;-77
2023/05/19 00:23:58;;;;;;;10.00;6.20;;;;;;;7.72;99.81;98747.16;106889;1275;24313;-78
2023/05/19 00:26:26;;;;;;;8.60;6.50;;;;;;;7.71;99.85;98745.44;107124;1275;24478;-79
2023/05/19 00:28:59;;;;;;;12.70;6.60;;;;;;;7.74;99.92;98750.89;107104;1275;22516;-81
2023/05/19 00:31:27;;;;;;;10.40;6.30;;;;;;;7.76;99.99;98752.23;107119;1275;25371;-80
2023/05/19 00:33:55;;;;;;;9.00;6.30;;;;;;;7.79;100.00;98753.11;106858;1275;22611;-81
2023/05/19 00:36:23;;;;;;;8.90;6.30;;;;;;;7.83;99.99;98754.42;106943;1275;22708;-78
2023/05/19 00:38:51;;;;;;;9.10;6.90;;;;;;;7.86;100.00;98747.09;107033;1254;24251;-77
2023/05/19 00:41:19;;;;;;;9.70;7.20;;;;;;;7.86;100.00;98748.22;106815;1275;22643;-78
2023/05/19 00:43:48;;;;;;;14.90;6.50;;;;;;;7.85;100.00;98743.00;106846;1275;25661;-79
2023/05/19 00:46:17;;;;;;;8.80;6.50;;;;;;;7.83;100.00;98739.55;107091;1275;22790;-76
2023/05/19 00:48:45;;;;;;;8.30;6.20;;;;;;;7.82;99.98;98743.45;106899;1275;22720;-78
2023/05/19 00:51:15;;;;;;;9.60;6.40;;;;;;;7.83;100.00;98745.45;106809;1275;24230;-78
2023/05/19 00:53:47;;;;;;;10.00;6.70;;;;;;;7.87;99.99;98746.45;107133;1275;22608;-81
2023/05/19 00:56:17;;;;;;;10.30;6.30;;;;;;;7.88;100.00;98744.77;107088;1275;26723;-80
2023/05/19 00:58:46;;;;;;;10.00;6.20;;;;;;;7.87;100.00;98744.98;106777;1275;22532;-78
2023/05/19 01:01:15;;;;;;;7.60;6.40;;;;;;;7.86;100.00;98741.08;107148;1275;22634;-79
2023/05/19 01:03:45;;;;;;;7.70;5.90;;;;;;;7.86;100.00;98740.06;106839;1275;22623;-78
2023/05/19 01:06:14;;;;;;;9.20;6.80;;;;;;;7.83;100.00;98735.15;106910;1275;22529;-78
2023/05/19 01:08:42;;;;;;;8.90;5.90;;;;;;;7.80;100.00;98738.30;107080;1275;25444;-80
2023/05/19 01:11:10;;;;;;;10.10;6.00;;;;;;;7.80;100.00;98736.70;107125;1274;24719;-80
2023/05/19 01:13:38;;;;;;;8.10;6.10;;;;;;;7.81;100.00;98736.17;107093;1275;25402;-80
2023/05/19 01:16:09;;;;;;;8.10;5.30;;;;;;;7.79;100.00;98730.31;107138;1275;25337;-80
2023/05/19 01:18:48;;;;;;;7.10;6.00;;;;;;;7.77;100.00;98729.23;106820;1275;22788;-80
2023/05/19 01:22:05;;;;;;;10.80;7.20;;;;;;;7.77;100.00;98730.95;106760;1275;26900;-79
2023/05/19 01:24:53;;;;;;;8.60;6.90;;;;;;;7.73;100.00;98733.06;106765;1275;23972;-81
2023/05/19 01:27:49;;;;;;;8.70;6.80;;;;;;;7.72;100.00;98738.95;106667;1275;23500;-79
2023/05/19 01:30:40;;;;;;;8.50;5.50;;;;;;;7.74;100.00;98735.00;106903;1275;25473;-79
2023/05/19 01:33:13;;;;;;;8.30;5.70;;;;;;;7.77;100.00;98735.29;106499;1275;22528;-82
2023/05/19 01:35:43;;;;;;;9.40;6.00;;;;;;;7.78;100.00;98728.63;106575;1275;22525;-80
2023/05/19 01:38:15;;;;;;;7.70;5.70;;;;;;;7.78;100.00;98720.44;106566;1275;22619;-80
2023/05/19 01:40:45;;;;;;;9.60;6.10;;;;;;;7.78;100.00;98716.89;106770;1275;22630;-82
2023/05/19 01:43:18;;;;;;;10.30;6.40;;;;;;;7.77;100.00;98721.71;106986;1275;24052;-82
2023/05/19 01:45:47;;;;;;;7.60;5.30;;;;;;;7.77;100.00;98721.65;107078;1275;22519;-81
2023/05/19 01:48:17;;;;;;;12.70;6.00;;;;;;;7.77;100.00;98724.61;106793;1275;22607;-81
2023/05/19 01:50:46;;;;;;;9.40;5.60;;;;;;;7.78;100.00;98724.34;106860;1275;22530;-81
2023/05/19 01:53:16;;;;;;;7.90;5.40;;;;;;;7.81;100.00;98721.23;106814;1275;22532;-81
2023/05/19 01:55:48;;;;;;;10.60;5.80;;;;;;;7.85;100.00;98721.02;106898;1275;24389;-81
2023/05/19 01:58:45;;;;;;;12.00;6.60;;;;;;;7.85;100.00;98712.90;106971;1275;22536;-81
2023/05/19 02:01:54;;;;;;;7.90;6.00;;;;;;;7.83;100.00;98706.83;109819;1276;22542;-80
2023/05/19 02:04:42;;;;;;;10.90;6.40;;;;;;;7.80;100.00;98705.46;109174;1283;22848;-79
2023/05/19 02:07:10;;;;;;;9.60;6.10;;;;;;;7.77;100.00;98701.17;108152;1284;22530;-83
2023/05/19 02:09:47;;;;;;;11.40;6.00;;;;;;;7.77;100.00;98701.75;106217;1283;25655;-83
2023/05/19 02:12:25;;;;;;;10.30;6.00;;;;;;;7.79;100.00;98699.99;106416;1283;22546;-82
2023/05/19 02:15:08;;;;;;;8.20;5.90;;;;;;;7.80;100.00;98698.02;106254;1284;25389;-82
2023/05/19 02:17:46;;;;;;;8.90;7.10;;;;;;;7.80;100.00;98694.25;106006;1283;24359;-80
2023/05/19 02:20:15;;;;;;;11.00;5.70;;;;;;;7.78;100.00;98696.55;106218;1283;22534;-80
2023/05/19 02:22:43;;;;;;;8.70;6.10;;;;;;;7.79;100.00;98698.11;106111;1283;22538;-80
2023/05/19 02:25:13;;;;;;;10.20;6.10;;;;;;;7.79;100.00;98697.30;106001;1283;23216;-77
2023/05/19 02:27:41;;;;;;;9.40;6.60;;;;;;;7.80;100.00;98693.17;106127;1283;25584;-77
2023/05/19 02:30:09;;;;;;;8.20;5.80;;;;;;;7.81;100.00;98689.64;106093;1284;22489;-76
2023/05/19 02:32:38;;;;;;;7.90;6.00;;;;;;;7.84;100.00;98689.77;106084;1283;24232;-77
2023/05/19 02:35:06;;;;;;;10.10;6.30;;;;;;;7.85;100.00;98683.64;106110;1283;24353;-77
2023/05/19 02:37:34;;;;;;;30.30;7.70;;;;;;;7.83;100.00;98682.56;106082;1285;23937;-78
2023/05/19 02:40:03;;;;;;;9.60;6.40;;;;;;;7.80;100.00;98689.27;106391;1276;22528;-78
2023/05/19 02:42:31;;;;;;;9.20;6.70;;;;;;;7.79;100.00;98692.52;106846;1276;25472;-77
2023/05/19 02:44:59;;;;;;;11.40;6.80;;;;;;;7.79;100.00;98687.75;106662;1276;22649;-77
2023/05/19 02:47:27;;;;;;;8.70;7.00;;;;;;;7.80;100.00;98687.44;106801;1276;22534;-77
2023/05/19 02:49:55;;;;;;;9.10;6.30;;;;;;;7.82;100.00;98688.84;106821;1276;25461;-77
2023/05/19 02:52:23;;;;;;;10.30;7.30;;;;;;;7.81;100.00;98689.64;106792;1276;22535;-77
2023/05/19 02:54:52;;;;;;;9.40;6.50;;;;;;;7.80;100.00;98691.25;106607;1276;25362;-77
2023/05/19 02:57:20;;;;;;;8.90;6.20;;;;;;;7.80;100.00;98692.64;106650;1276;24447;-77
2023/05/19 02:59:48;;;;;;;8.80;6.70;;;;;;;7.83;100.00;98689.60;106638;1276;25500;-77
2023/05/19 03:02:16;;;;;;;9.30;7.10;;;;;;;7.82;100.00;98687.82;106795;1264;22540;-77
2023/05/19 03:04:44;;;;;;;9.90;6.50;;;;;;;7.82;100.00;98691.30;106643;1276;22589;-77
2023/05/19 03:07:12;;;;;;;9.40;7.40;;;;;;;7.80;100.00;98696.71;106800;1276;25393;-77
2023/05/19 03:09:40;;;;;;;11.80;8.40;;;;;;;7.78;100.00;98696.07;106797;1276;22542;-78
2023/05/19 03:12:08;;;;;;;8.20;6.60;;;;;;;7.81;100.00;98698.77;106818;1276;22790;-77
2023/05/19 03:14:37;;;;;;;9.90;6.40;;;;;;;7.84;100.00;98700.06;106910;1276;24257;-77
2023/05/19 03:17:09;;;;;;;8.70;6.10;;;;;;;7.85;100.00;98697.44;106605;1276;23933;-77
2023/05/19 03:19:37;;;;;;;9.90;7.00;;;;;;;7.88;100.00;98695.09;106776;1276;22602;-79
2023/05/19 03:22:05;;;;;;;11.50;6.80;;;;;;;7.93;100.00;98694.16;106813;1276;22529;-82
2023/05/19 03:24:35;;;;;;;8.20;6.40;;;;;;;7.99;100.00;98693.90;106831;1276;22652;-81
2023/05/19 03:27:06;;;;;;;8.90;6.90;;;;;;;8.02;100.00;98700.84;106621;1276;22565;-81
2023/05/19 03:29:34;;;;;;;10.20;7.40;;;;;;;8.04;100.00;98703.71;106615;1276;22528;-80
2023/05/19 03:32:02;;;;;;;9.20;6.60;;;;;;;8.03;100.00;98704.83;106799;1276;22587;-80
2023/05/19 03:34:31;;;;;;;11.20;8.00;;;;;;;8.06;100.00;98706.13;106819;1276;22780;-81
2023/05/19 03:36:59;;;;;;;13.10;7.00;;;;;;;8.09;100.00;98701.79;106662;1275;22586;-80
2023/05/19 03:39:27;;;;;;;9.90;8.00;;;;;;;8.13;100.00;98701.74;106909;1275;24220;-80
2023/05/19 03:41:55;;;;;;;13.20;10.60;;;;;;;8.18;100.00;98702.46;106988;1254;24255;-81
2023/05/19 03:44:23;;;;;;;9.30;7.20;;;;;;;8.22;100.00;98704.10;106673;1275;22790;-81
2023/05/19 03:46:52;;;;;;;10.10;7.90;;;;;;;8.26;100.00;98700.23;107010;1275;22521;-81
2023/05/19 03:49:46;;;;;;;10.10;8.10;;;;;;;8.28;100.00;98697.29;106815;1275;22626;-81
2023/05/19 03:52:14;;;;;;;11.80;7.70;;;;;;;8.33;100.00;98700.16;106968;1275;24445;-81
2023/05/19 03:54:56;;;;;;;10.10;8.00;;;;;;;8.34;100.00;98699.71;107096;1275;25262;-81
2023/05/19 03:57:25;;;;;;;10.50;7.90;;;;;;;8.35;100.00;98700.11;106987;1275;24242;-81
2023/05/19 03:59:54;;;;;;;11.90;8.80;;;;;;;8.38;100.00;98702.31;106870;1275;25739;-81
2023/05/19 04:02:22;;;;;;;11.10;8.10;;;;;;;8.42;100.00;98696.60;106877;1275;22532;-80
2023/05/19 04:04:51;;;;;;;13.90;7.90;;;;;;;8.48;100.00;98697.75;106977;1275;24604;-79
2023/05/19 04:07:19;;;;;;;14.20;9.20;;;;;;;8.52;100.00;98697.77;106931;1275;22629;-79
2023/05/19 04:09:48;;;;;;;10.60;8.60;;;;;;;8.57;100.00;98698.25;106954;1275;24372;-78
2023/05/19 04:12:16;;;;;;;14.10;9.30;;;;;;;8.61;100.00;98697.60;106958;1273;22533;-79
2023/05/19 04:14:45;;;;;;;13.10;9.10;;;;;;;8.59;100.00;98697.84;106913;1275;24411;-78
2023/05/19 04:17:13;;;;;;;11.90;9.60;;;;;;;8.59;100.00;98702.55;107119;1264;22601;-80
2023/05/19 04:19:41;;;;;;;10.40;8.70;;;;;;;8.60;100.00;98701.74;106625;1275;22528;-79
2023/05/19 04:22:09;;;;;;;10.80;8.50;;;;;;;8.62;100.00;98700.64;106769;1275;22629;-81
2023/05/19 04:24:37;;;;;;;12.10;8.90;;;;;;;8.63;100.00;98701.11;107149;1275;22644;-83
2023/05/19 04:27:10;;;;;;;9.70;8.10;;;;;;;8.67;100.00;98703.22;107005;1275;22528;-80
2023/05/19 04:29:40;;;;;;;11.20;8.70;;;;;;;8.71;100.00;98706.49;106862;1275;26012;-80
2023/05/19 04:32:09;;;;;;;11.60;8.80;;;;;;;8.73;100.00;98707.46;106758;1275;24195;-79
2023/05/19 04:34:39;;;;;;;12.20;9.00;;;;;;;8.75;100.00;98709.20;106996;1275;24391;-81
2023/05/19 04:37:08;;;;;;;10.00;8.90;;;;;;;8.76;100.00;98707.41;106808;1275;22567;-83
2023/05/19 04:39:39;;;;;;;14.70;9.50;;;;;;;8.77;100.00;98706.73;107002;1275;22628;-80
2023/05/19 04:42:07;;;;;;;14.00;8.80;;;;;;;8.78;100.00;98702.64;107390;1275;22634;-84
2023/05/19 04:44:38;;;;;;;10.50;8.10;;;;;;;8.83;100.00;98700.06;107396;1275;22641;-80
2023/05/19 04:47:07;;;;;;;28.30;25.30;;;;;;;8.88;100.00;98700.60;107524;1275;24375;-80
2023/05/19 04:49:38;;;;;;;11.10;9.30;;;;;;;8.92;100.00;98699.16;107437;1275;22525;-81
2023/05/19 04:52:11;;;;;;;11.10;8.40;;;;;;;8.94;100.00;98695.08;107435;1275;22554;-82
2023/05/19 04:54:40;;;;;;;10.90;9.10;;;;;;;8.94;100.00;98696.52;107233;1275;24246;-82
2023/05/19 04:57:10;;;;;;;11.60;9.00;;;;;;;8.92;100.00;98699.64;106704;1275;25598;-82
2023/05/19 04:59:38;;;;;;;12.40;9.20;;;;;;;8.94;100.00;98702.33;106840;1275;22618;-81
2023/05/19 05:02:07;;;;;;;11.80;9.10;;;;;;;8.97;100.00;98702.83;106879;1275;22580;-82
2023/05/19 05:04:41;;;;;;;12.10;9.50;;;;;;;8.99;100.00;98702.98;106965;1275;25280;-82
2023/05/19 05:07:09;;;;;;;11.30;9.80;;;;;;;9.01;100.00;98706.31;106911;1275;23891;-82
2023/05/19 05:09:38;;;;;;;11.00;8.70;;;;;;;9.05;100.00;98708.04;106971;1275;22598;-82
2023/05/19 05:12:07;;;;;;;16.00;9.70;;;;;;;9.04;100.00;98710.13;107038;1275;25272;-82
2023/05/19 05:14:38;;;;;;;13.80;10.60;;;;;;;9.04;100.00;98710.02;106953;1275;22525;-82
2023/05/19 05:17:08;;;;;;;11.30;9.60;;;;;;;9.02;100.00;98703.30;106787;1275;22646;-81
2023/05/19 05:19:37;;;;;;;10.90;9.30;;;;;;;9.01;100.00;98704.54;106757;1275;22645;-82
2023/05/19 05:22:06;;;;;;;11.60;9.80;;;;;;;9.00;100.00;98707.93;106994;1275;22566;-81
2023/05/19 05:24:36;;;;;;;10.70;9.40;;;;;;;9.02;100.00;98706.79;106695;1275;22606;-81
2023/05/19 05:27:08;;;;;;;12.80;9.50;;;;;;;9.05;100.00;98711.42;106962;1275;22589;-81
2023/05/19 05:29:40;;;;;;;17.40;11.10;;;;;;;9.06;100.00;98714.44;107337;1275;25518;-81
2023/05/19 05:32:10;;;;;;;12.30;10.90;;;;;;;9.07;100.00;98719.39;107427;1275;22855;-81
2023/05/19 05:34:40;;;;;;;15.10;11.40;;;;;;;9.12;100.00;98720.44;107658;1275;24190;-81
2023/05/19 05:37:09;;;;;;;14.60;12.30;;;;;;;9.13;100.00;98724.06;107635;1275;25197;-81
2023/05/19 05:39:41;;;;;;;13.50;11.70;;;;;;;9.14;100.00;98722.98;107642;1275;22466;-80
2023/05/19 05:42:09;;;;;;;13.50;12.10;;;;;;;9.17;100.00;98728.80;107674;1275;22659;-81
2023/05/19 05:44:38;;;;;;;13.40;10.80;;;;;;;9.17;100.00;98728.63;107721;1275;23077;-81
2023/05/19 05:47:08;;;;;;;14.70;11.00;;;;;;;9.20;100.00;98726.27;107785;1275;23931;-81
2023/05/19 05:49:36;;;;;;;13.20;11.70;;;;;;;9.24;100.00;98726.05;107609;1276;22654;-81
2023/05/19 05:52:10;;;;;;;13.10;11.60;;;;;;;9.26;100.00;98726.95;107456;1275;185270;-81
2023/05/19 05:54:43;;;;;;;14.50;12.20;;;;;;;9.25;100.00;98723.79;107577;1275;25394;-81
2023/05/19 05:57:13;;;;;;;18.50;12.20;;;;;;;9.30;100.00;98728.58;107988;1275;22554;-81
2023/05/19 05:59:44;;;;;;;13.40;11.50;;;;;;;9.29;100.00;98725.89;107193;1275;25281;-82
2023/05/19 06:02:12;;;;;;;14.40;12.20;;;;;;;9.30;100.00;98725.94;106897;1275;23885;-81
2023/05/19 06:04:40;;;;;;;13.40;12.10;;;;;;;9.31;100.00;98730.55;107059;1275;24276;-82
2023/05/19 06:07:08;;;;;;;14.80;11.30;;;;;;;9.34;100.00;98731.74;107052;1261;23371;-83
2023/05/19 06:09:37;;;;;;;16.80;13.00;;;;;;;9.40;100.00;98729.70;106995;1254;24262;-82
2023/05/19 06:12:06;;;;;;;14.10;11.40;;;;;;;9.43;100.00;98729.80;107035;1275;22514;-81
2023/05/19 06:14:39;;;;;;;13.90;12.50;;;;;;;9.43;100.00;98735.29;107028;1275;24343;-82
2023/05/19 06:17:36;;;;;;;13.60;12.00;;;;;;;9.43;100.00;98741.75;106935;1275;22629;-83
2023/05/19 06:20:05;;;;;;;14.90;12.80;;;;;;;9.46;100.00;98739.05;107083;1275;22523;-82
2023/05/19 06:22:34;;;;;;;29.10;13.30;;;;;;;9.47;100.00;98745.25;106900;1275;22533;-81
2023/05/19 06:25:04;;;;;;;16.30;13.50;;;;;;;9.50;100.00;98746.20;107039;1275;22529;-82
2023/05/19 06:27:34;;;;;;;15.10;13.60;;;;;;;9.53;100.00;98746.48;106948;1275;22521;-82
2023/05/19 06:30:03;;;;;;;35.70;22.10;;;;;;;9.55;100.00;98746.69;106820;1275;26508;-83
2023/05/19 06:32:34;;;;;;;57.30;29.10;;;;;;;9.52;100.00;98743.45;107014;1275;22523;-82
2023/05/19 06:35:03;;;;;;;157.50;52.00;;;;;;;9.51;100.00;98745.92;106964;1275;22535;-81
2023/05/19 06:37:32;;;;;;;46.40;26.60;;;;;;;9.52;100.00;98745.44;106781;1275;25284;-81
2023/05/19 06:40:00;;;;;;;40.30;22.00;;;;;;;9.54;100.00;98744.75;106782;1275;24422;-80
2023/05/19 06:42:28;;;;;;;25.50;16.50;;;;;;;9.60;100.00;98745.98;106807;1275;22740;-81
2023/05/19 06:44:58;;;;;;;18.20;14.30;;;;;;;9.67;100.00;98745.21;107256;1275;22518;-83
2023/05/19 06:47:28;;;;;;;16.60;14.60;;;;;;;9.68;100.00;98743.66;106938;1275;24213;-82
2023/05/19 06:49:56;;;;;;;73.20;34.40;;;;;;;9.69;100.00;98746.71;107460;1275;22620;-81
2023/05/19 06:52:26;;;;;;;54.40;27.30;;;;;;;9.70;100.00;98750.21;107599;1275;22775;-82
2023/05/19 06:54:55;;;;;;;29.50;19.10;;;;;;;9.68;100.00;98752.75;108590;1275;22552;-80
2023/05/19 06:57:23;;;;;;;19.50;15.10;;;;;;;9.70;100.00;98752.42;108714;1254;25385;-81
2023/05/19 06:59:51;;;;;;;29.70;18.10;;;;;;;9.73;100.00;98751.18;108920;1275;22564;-79
2023/05/19 07:02:19;;;;;;;25.70;17.60;;;;;;;9.80;100.00;98752.02;107544;1275;25580;-82
2023/05/19 07:04:47;;;;;;;17.80;14.30;;;;;;;9.86;100.00;98747.65;106926;1275;22526;-82
2023/05/19 07:07:16;;;;;;;18.10;14.20;;;;;;;9.88;100.00;98748.07;107141;1275;23920;-82
2023/05/19 07:09:45;;;;;;;17.10;14.80;;;;;;;9.91;100.00;98748.88;107142;1275;22552;-81
2023/05/19 07:12:13;;;;;;;22.20;15.00;;;;;;;9.92;100.00;98748.02;107041;1275;24371;-81
2023/05/19 07:14:41;;;;;;;19.00;14.90;;;;;;;9.93;100.00;98751.99;106800;1275;22757;-81
2023/05/19 07:17:10;;;;;;;24.60;17.10;;;;;;;9.95;100.00;98751.51;106890;1275;22520;-81
2023/05/19 07:19:40;;;;;;;22.00;14.50;;;;;;;9.98;100.00;98744.81;106776;1275;22559;-81
2023/05/19 07:22:08;;;;;;;18.40;13.40;;;;;;;10.06;100.00;98742.75;106965;1275;25340;-81
2023/05/19 07:24:37;;;;;;;15.50;12.70;;;;;;;10.16;100.00;98744.13;106784;1275;22520;-81
2023/05/19 07:27:05;;;;;;;18.90;14.20;;;;;;;10.23;100.00;98740.64;106980;1275;25383;-81
2023/05/19 07:29:33;;;;;;;14.50;11.40;;;;;;;10.32;100.00;98743.23;107050;1275;26633;-81
2023/05/19 07:32:00;;;;;;;17.40;12.80;;;;;;;10.37;100.00;98738.69;106927;1275;23244;-81
2023/05/19 07:34:29;;;;;;;19.10;13.30;;;;;;;10.44;100.00;98735.41;107014;1275;22552;-81
2023/05/19 07:36:57;;;;;;;15.30;11.60;;;;;;;10.51;100.00;98734.52;106948;1275;22776;-81
2023/05/19 07:39:28;;;;;;;17.60;12.00;;;;;;;10.57;100.00;98730.91;107000;1275;22521;-82
2023/05/19 07:41:56;;;;;;;18.30;11.50;;;;;;;10.62;100.00;98733.32;107094;1275;23120;-81
2023/05/19 07:44:25;;;;;;;25.30;20.70;;;;;;;10.67;100.00;98731.61;106889;1275;24186;-82
2023/05/19 07:46:54;;;;;;;22.90;15.80;;;;;;;10.69;100.00;98734.95;107017;1275;22624;-82
2023/05/19 07:49:22;;;;;;;20.60;18.40;;;;;;;10.72;100.00;98730.52;106957;1275;22614;-81
2023/05/19 07:51:50;;;;;;;17.20;13.40;;;;;;;10.79;100.00;98732.84;106748;1275;25275;-81
2023/05/19 07:54:19;;;;;;;19.30;14.20;;;;;;;10.83;100.00;98733.58;106980;1275;24253;-81
2023/05/19 07:56:47;;;;;;;19.30;13.20;;;;;;;10.87;100.00;98737.96;106984;1275;22518;-82
2023/05/19 07:59:15;;;;;;;15.90;13.20;;;;;;;10.91;100.00;98739.66;107039;1275;22647;-81
2023/05/19 08:01:43;;;;;;;16.00;14.40;;;;;;;10.96;100.00;98740.23;106838;1275;23236;-82
2023/05/19 08:04:12;;;;;;;26.90;24.50;;;;;;;11.00;100.00;98744.56;107011;1275;22475;-81
2023/05/19 08:06:41;;;;;;;21.80;17.90;;;;;;;11.02;100.00;98742.34;106970;1275;22659;-82
2023/05/19 08:09:09;;;;;;;18.60;14.70;;;;;;;11.02;100.00;98738.99;106869;1275;24183;-82
2023/05/19 08:11:38;;;;;;;20.70;18.60;;;;;;;11.01;100.00;98741.70;106980;1275;24343;-81
2023/05/19 08:14:06;;;;;;;14.60;13.00;;;;;;;11.01;100.00;98744.61;106881;1275;25456;-82
2023/05/19 08:16:34;;;;;;;14.90;12.30;;;;;;;11.03;100.00;98741.04;106945;1275;22637;-82
2023/05/19 08:19:03;;;;;;;16.50;12.80;;;;;;;11.07;100.00;98744.23;106995;1275;23018;-81
2023/05/19 08:21:35;;;;;;;18.80;12.40;;;;;;;11.18;100.00;98745.51;107046;1275;25622;-82
2023/05/19 08:24:03;;;;;;;12.40;10.80;;;;;;;11.23;100.00;98745.48;107026;1275;22799;-81
2023/05/19 08:26:31;;;;;;;15.90;13.20;;;;;;;11.26;100.00;98746.15;107077;1275;23995;-81
2023/05/19 08:29:01;;;;;;;13.30;11.40;;;;;;;11.29;100.00;98743.38;106876;1275;23159;-77
2023/05/19 08:31:29;;;;;;;14.10;12.10;;;;;;;11.33;100.00;98749.65;107288;1275;24408;-80
2023/05/19 08:33:58;;;;;;;20.70;18.60;;;;;;;11.35;100.00;98750.83;107384;1275;22576;-79
2023/05/19 08:36:26;;;;;;;24.30;20.60;;;;;;;11.44;100.00;98748.65;107057;1275;22547;-78
2023/05/19 08:38:54;;;;;;;23.70;21.50;;;;;;;11.51;100.00;98748.69;107529;1275;22479;-81
2023/05/19 08:41:22;;;;;;;17.40;13.90;;;;;;;11.55;100.00;98750.00;107354;1275;25371;-82
2023/05/19 08:43:50;;;;;;;16.20;13.90;;;;;;;11.60;99.88;98751.14;107014;1275;22518;-79
2023/05/19 08:46:20;;;;;;;13.80;11.30;;;;;;;11.62;99.82;98759.34;106961;1275;23328;-79
2023/05/19 08:48:53;;;;;;;17.50;10.70;;;;;;;11.63;99.36;98759.87;107003;1252;22525;-79
2023/05/19 08:51:49;;;;;;;14.70;12.70;;;;;;;11.65;99.80;98762.38;106814;1275;25430;-78
2023/05/19 08:54:19;;;;;;;16.70;13.60;;;;;;;11.66;99.44;98762.11;106906;1263;24265;-78
2023/05/19 08:56:47;;;;;;;14.90;11.90;;;;;;;11.67;99.85;98764.20;106869;1275;24298;-77
2023/05/19 08:59:17;;;;;;;14.10;11.50;;;;;;;11.70;99.91;98763.20;106837;1268;24232;-77
2023/05/19 09:01:45;;;;;;;15.00;10.10;;;;;;;11.72;99.79;98765.23;106716;1275;24432;-77
2023/05/19 09:04:15;;;;;;;14.40;11.50;;;;;;;11.74;99.03;98769.75;106848;1275;25497;-78
2023/05/19 09:06:44;;;;;;;14.60;10.70;;;;;;;11.75;98.74;98769.79;106900;1275;25502;-78
2023/05/19 09:09:12;;;;;;;14.00;11.60;;;;;;;11.78;98.65;98769.44;106856;1275;24931;-77
2023/05/19 09:11:44;;;;;;;14.70;11.70;;;;;;;11.80;98.88;98768.77;106868;1275;22527;-77
2023/05/19 09:14:12;;;;;;;17.80;12.70;;;;;;;11.87;99.21;98769.27;106894;1275;25368;-77
2023/05/19 09:16:40;;;;;;;13.60;12.20;;;;;;;11.89;98.71;98768.83;107121;1268;22549;-77
2023/05/19 09:19:16;;;;;;;14.60;12.20;;;;;;;11.89;98.40;98770.45;107133;1275;24244;-77
2023/05/19 09:21:44;;;;;;;15.20;12.80;;;;;;;11.90;97.84;98769.08;107246;1275;25334;-77
2023/05/19 09:24:12;;;;;;;14.80;11.10;;;;;;;11.92;97.60;98774.84;107125;1275;22504;-77
2023/05/19 09:26:41;;;;;;;12.80;11.40;;;;;;;11.88;97.66;98773.15;107156;1274;25322;-77
2023/05/19 09:29:14;;;;;;;15.00;10.80;;;;;;;11.90;97.94;98770.59;107128;1275;24246;-77
2023/05/19 09:31:53;;;;;;;17.30;11.80;;;;;;;11.94;98.15;98769.75;107194;1269;22640;-77
2023/05/19 09:34:23;;;;;;;12.80;11.40;;;;;;;11.98;98.25;98768.95;107083;1275;23805;-77
2023/05/19 09:36:52;;;;;;;15.80;11.00;;;;;;;12.05;97.54;98774.92;107068;1275;22621;-78
2023/05/19 09:39:25;;;;;;;13.30;10.60;;;;;;;12.14;97.67;98768.34;107166;1275;22574;-77
2023/05/19 09:41:54;;;;;;;12.20;10.50;;;;;;;12.22;97.00;98768.80;107214;1275;22845;-76
2023/05/19 09:44:33;;;;;;;13.70;11.70;;;;;;;12.29;96.94;98771.59;106702;1275;22516;-80
2023/05/19 09:47:02;;;;;;;14.30;12.50;;;;;;;12.33;96.33;98767.31;106848;1275;24227;-79
2023/05/19 09:49:31;;;;;;;15.20;12.20;;;;;;;12.32;96.47;98768.83;106843;1275;22933;-80
2023/05/19 09:52:02;;;;;;;14.90;12.80;;;;;;;12.32;96.08;98768.67;106898;1275;22546;-79
2023/05/19 09:54:32;;;;;;;15.70;11.80;;;;;;;12.28;95.58;98773.27;106941;1275;22528;-79
2023/05/19 09:57:03;;;;;;;14.60;12.30;;;;;;;12.28;96.00;98770.40;106875;1275;22545;-79
2023/05/19 09:59:33;;;;;;;13.20;11.80;;;;;;;12.31;95.84;98773.08;106872;1275;22962;-79
2023/05/19 10:02:01;;;;;;;16.40;14.30;;;;;;;12.32;95.86;98772.48;106836;1275;26832;-78
2023/05/19 10:04:30;;;;;;;15.30;13.70;;;;;;;12.32;95.48;98768.57;106914;1275;25489;-79
2023/05/19 10:07:04;;;;;;;14.50;12.30;;;;;;;12.28;95.59;98770.94;106892;1275;24241;-79
2023/05/19 10:09:35;;;;;;;15.30;11.10;;;;;;;12.27;95.40;98773.86;106861;1275;25579;-79
2023/05/19 10:12:04;;;;;;;12.80;10.00;;;;;;;12.35;95.90;98768.36;106864;1275;22801;-79
2023/05/19 10:14:32;;;;;;;13.20;10.10;;;;;;;12.41;95.74;98767.98;106644;1275;22577;-79
2023/05/19 10:17:00;;;;;;;12.70;10.20;;;;;;;12.47;95.73;98765.20;106844;1263;22582;-79
2023/05/19 10:19:28;;;;;;;11.50;10.30;;;;;;;12.51;95.47;98765.05;106871;1275;22679;-79
2023/05/19 10:21:57;;;;;;;14.00;12.00;;;;;;;12.54;95.74;98764.17;106983;1275;22612;-79
2023/05/19 10:24:26;;;;;;;12.90;11.50;;;;;;;12.58;94.54;98761.38;107046;1275;22592;-80
2023/05/19 10:27:00;;;;;;;13.40;11.30;;;;;;;12.58;94.41;98761.48;106895;1275;22527;-79
2023/05/19 10:29:33;;;;;;;12.50;9.90;;;;;;;12.65;94.46;98757.83;106978;1275;22809;-80
2023/05/19 10:32:10;;;;;;;11.70;10.30;;;;;;;12.74;94.57;98757.69;106872;1275;22787;-79
2023/05/19 10:34:56;;;;;;;13.40;11.60;;;;;;;12.87;94.71;98756.39;106763;1276;23896;-79
2023/05/19 10:37:44;;;;;;;12.10;10.40;;;;;;;12.93;94.40;98750.07;106786;1275;22650;-79
2023/05/19 10:40:20;;;;;;;13.00;11.70;;;;;;;12.98;94.09;98751.10;106919;1275;25535;-79
2023/05/19 10:43:13;;;;;;;12.60;11.30;;;;;;;12.98;93.49;98752.66;106872;1275;22520;-79
2023/05/19 10:45:51;;;;;;;12.20;10.30;;;;;;;12.99;92.77;98757.41;106868;1275;22925;-80
2023/05/19 10:48:21;;;;;;;11.30;10.10;;;;;;;12.98;93.11;98758.71;106804;1275;22632;-79
2023/05/19 10:50:53;;;;;;;11.80;10.40;;;;;;;12.98;93.28;98757.91;106894;1275;25339;-79
2023/05/19 10:53:29;;;;;;;13.20;10.20;;;;;;;13.02;93.42;98755.41;107165;1275;24082;-79
2023/05/19 10:56:03;;;;;;;11.20;10.10;;;;;;;13.05;93.26;98753.90;106900;1275;22532;-78
2023/05/19 10:58:43;;;;;;;13.60;12.30;;;;;;;13.09;93.63;98748.98;106890;1272;22558;-79
2023/05/19 11:01:13;;;;;;;15.90;14.20;;;;;;;13.17;92.81;98745.86;106862;1275;22668;-79
2023/05/19 11:03:48;;;;;;;16.20;14.60;;;;;;;13.27;92.36;98740.49;106575;1276;22710;-78
2023/05/19 11:06:19;;;;;;;15.40;11.50;;;;;;;13.42;92.37;98741.55;106756;1276;23783;-79
2023/05/19 11:09:04;;;;;;;13.40;11.40;;;;;;;13.61;92.69;98739.38;106708;1276;22539;-79
2023/05/19 11:11:49;;;;;;;14.20;12.80;;;;;;;13.78;92.03;98740.10;106915;1275;25325;-79
2023/05/19 11:14:21;;;;;;;13.30;11.60;;;;;;;13.83;91.20;98741.86;106851;1275;22572;-79
2023/05/19 11:16:59;;;;;;;11.10;10.00;;;;;;;13.82;91.45;98743.02;107080;1272;22643;-78
2023/05/19 11:19:30;;;;;;;12.20;10.20;;;;;;;13.79;91.00;98744.32;107183;1275;22524;-81
2023/05/19 11:22:10;;;;;;;10.50;9.50;;;;;;;13.69;90.10;98740.11;106746;1275;22546;-79
2023/05/19 11:24:40;;;;;;;11.60;10.50;;;;;;;13.67;90.41;98744.48;107047;1275;22528;-80
2023/05/19 11:27:17;;;;;;;10.90;9.80;;;;;;;13.68;90.51;98742.99;106956;1272;22651;-79
2023/05/19 11:29:47;;;;;;;13.30;10.50;;;;;;;13.75;90.49;98746.83;106992;1275;24392;-79
2023/05/19 11:32:16;;;;;;;14.70;11.00;;;;;;;13.82;90.55;98746.05;107005;1275;25181;-80